Weather reports worldwide

Advertisment
Marknesse aws, Netherlands (6273): temperature & dewpoint: 07.12.2019 05:00:00 - 13.12.2019 05:00:00 (CET)Marknesse aws, Netherlands (6273): temperature 5cm & temperature -5cm: 07.12.2019 05:00:00 - 13.12.2019 05:00:00 (CET)Marknesse aws, Netherlands (6273): temperature -20cm & temperature -100cm: 07.12.2019 05:00:00 - 13.12.2019 05:00:00 (CET)Marknesse aws, Netherlands (6273): wind speed & gusts: 07.12.2019 05:00:00 - 13.12.2019 05:00:00 (CET)Marknesse aws, Netherlands (6273): wind direction: 07.12.2019 05:00:00 - 13.12.2019 05:00:00 (CET)Marknesse aws, Netherlands (6273): visibility: 07.12.2019 05:00:00 - 13.12.2019 05:00:00 (CET)Marknesse aws, Netherlands (6273): precipitation: 07.12.2019 05:00:00 - 13.12.2019 05:00:00 (CET)
Date & Time tt [°C] td [°C] tt 5cm [°C] tt -5cm [°C] tt -20cm [°C] tt -100cm [°C] ff [km/h] ff [kn] fx [km/h] fx [kn] dd vv [km] rr [mm]
13.12.2019 05:00:00 2,7 1,8 2,6 4,1 5,4 8,1 29 16 50 27 SSE - 0,6
13.12.2019 04:00:00 3,0 1,7 2,8 4,1 5,5 8,1 36 19 54 29 SSE - 0,8
13.12.2019 03:00:00 3,5 1,8 3,2 4,1 5,5 8,1 32 18 47 25 SSE - 0,0
13.12.2019 02:00:00 3,8 1,3 3,6 4,1 5,5 8,1 32 18 50 27 SSE - 0,0
13.12.2019 01:00:00 3,9 0,9 3,5 4,1 5,5 8,1 32 18 54 29 SSE - 0,0
13.12.2019 00:00:00 4,2 0,9 3,7 4,1 5,6 8,1 40 21 54 29 SSE - 0,0
12.12.2019 23:00:00 4,2 0,9 3,9 4,1 5,6 8,1 32 18 50 27 SSE - 0,0
12.12.2019 22:00:00 4,3 0,8 4,0 4,1 5,6 8,1 32 18 50 27 SSE - 0,0
12.12.2019 21:00:00 4,1 0,7 3,8 4,1 5,7 8,1 32 18 50 27 SSE - 0,0
12.12.2019 20:00:00 3,8 0,7 3,1 4,2 5,7 8,1 29 16 47 25 SSE - 0,0
12.12.2019 19:00:00 4,0 1,1 3,4 4,3 5,7 8,1 29 16 47 25 SSE - 0,0
12.12.2019 18:00:00 3,9 1,7 3,2 4,4 5,7 8,1 25 14 36 19 SSE - 0,0
12.12.2019 17:00:00 3,7 2,3 3,0 4,6 5,7 8,1 22 12 - - SSE - -
12.12.2019 16:00:00 - - - - - - - - - - - - -
12.12.2019 15:00:00 - - - - - - - - - - - - -
12.12.2019 14:00:00 - - - - - - - - - - - - -
12.12.2019 13:00:00 4,8 3,2 - - - - 22 12 32 18 S - 0,0
12.12.2019 12:00:00 4,3 3,2 4,7 4,4 5,8 8,1 22 12 29 16 S - 0,0
12.12.2019 11:00:00 4,0 3,3 4,0 4,3 5,8 8,1 18 10 25 14 SSW - 0,0
12.12.2019 10:00:00 3,4 2,9 3,0 4,3 5,9 8,1 14 8 - - SSW - 0,0
12.12.2019 09:00:00 3,1 2,8 2,4 4,5 5,9 8,1 14 8 25 14 SSW - 0,0
12.12.2019 08:00:00 3,2 2,9 2,6 4,7 5,9 8,1 14 8 22 12 SW 4,7 0,0
12.12.2019 07:00:00 3,8 3,3 3,2 4,9 5,9 8,1 18 10 22 12 SSW 6 0,0
12.12.2019 06:00:00 4,5 3,8 4,1 5,1 5,9 8,1 18 10 29 16 SSW 8 0,0
12.12.2019 05:00:00 4,9 4,0 4,7 5,2 5,9 8,1 22 12 32 18 SSW 9 0,2
12.12.2019 04:00:00 5,2 4,0 5,0 5,2 5,9 8,1 22 12 29 16 SSW 8 0,3
12.12.2019 03:00:00 5,3 4,1 5,0 5,2 6,0 8,1 14 8 25 14 S 10 0,0
12.12.2019 02:00:00 5,3 4,2 5,0 5,2 6,0 8,1 18 10 29 16 SSW 9 0,0
12.12.2019 01:00:00 5,5 4,5 5,3 5,1 6,0 8,1 18 10 29 16 SSW 7 0,0
12.12.2019 00:00:00 5,3 4,5 4,9 5,0 6,0 8,1 18 10 25 14 S 5 0,0
11.12.2019 23:00:00 4,8 4,3 4,1 5,1 6,0 8,1 11 6 18 10 S 4,1 0,0
11.12.2019 22:00:00 4,8 4,3 4,2 5,1 6,1 8,1 11 6 22 12 S 4,2 0,0
11.12.2019 21:00:00 4,5 4,0 3,8 5,2 6,1 8,1 14 8 22 12 S 3,5 0,0
11.12.2019 20:00:00 4,7 4,1 4,1 5,3 6,1 8,1 18 10 25 14 S 3,9 0,0
11.12.2019 19:00:00 4,9 4,2 4,3 5,5 6,1 8,1 14 8 22 12 S 4,6 0,0
11.12.2019 18:00:00 5,0 4,4 4,5 5,7 6,1 8,1 14 8 22 12 S 6 0,0
11.12.2019 17:00:00 5,8 4,9 5,2 5,9 6,1 8,1 11 6 18 10 S 7 0,0
11.12.2019 16:00:00 6,2 5,3 5,7 6,1 6,0 8,1 14 8 22 12 S 8 0,0
11.12.2019 15:00:00 6,7 5,7 6,5 6,2 6,0 8,1 11 6 22 12 S 9 0,0
11.12.2019 14:00:00 6,6 5,5 6,6 6,1 6,0 8,1 11 6 22 12 S 9 0,0
11.12.2019 13:00:00 6,6 5,9 6,8 5,9 6,0 8,1 18 10 25 14 SSW 7 0,0
11.12.2019 12:00:00 6,4 5,9 6,4 5,7 5,9 8,1 18 10 29 16 SSW 6 0,0
11.12.2019 11:00:00 6,1 6,0 6,0 5,6 5,9 8,1 14 8 18 10 SSW 4,5 0,0
11.12.2019 10:00:00 5,8 5,5 5,3 5,6 5,9 8,1 11 6 18 10 SSW 6 0,0
11.12.2019 09:00:00 6,0 5,7 5,7 5,7 5,9 8,1 14 8 18 10 SSW 6 0,0
11.12.2019 08:00:00 6,4 6,1 6,2 5,7 5,9 8,1 11 6 18 10 SSW 9 0,0
11.12.2019 07:00:00 6,4 6,1 6,3 5,6 5,9 8,1 18 10 29 16 SSW 7 0,5
11.12.2019 06:00:00 6,4 5,9 6,3 5,5 5,8 8,1 18 10 36 19 SSW 10 0,6
11.12.2019 05:00:00 6,5 5,8 6,2 5,4 5,8 8,1 25 14 40 21 SSW 14 0,2
11.12.2019 04:00:00 6,1 5,5 5,9 5,4 5,8 8,1 25 14 43 23 SSW 10 1,2
11.12.2019 03:00:00 5,6 4,9 5,5 5,3 5,8 8,1 29 16 54 29 SSW 6 0,3
11.12.2019 02:00:00 6,3 3,8 6,1 5,2 5,8 8,1 32 18 61 33 SSW 17 0,0
11.12.2019 01:00:00 6,8 3,1 6,6 5,1 5,8 8,1 36 19 65 35 SSW 27 0,0
11.12.2019 00:00:00 6,9 2,7 6,5 5,0 5,8 8,1 36 19 54 29 S 33 0,0
10.12.2019 23:00:00 6,5 2,4 6,2 4,9 5,8 8,1 36 19 61 33 S 31 0,0
10.12.2019 22:00:00 6,5 2,0 6,1 4,9 5,8 8,1 40 21 58 31 S 30 0,0
10.12.2019 21:00:00 6,0 1,7 5,6 4,8 5,8 8,1 40 21 58 31 S 30 0,0
10.12.2019 20:00:00 5,6 1,3 5,2 4,8 5,8 8,1 36 19 54 29 S 29 0,0
10.12.2019 19:00:00 5,5 1,3 4,9 4,8 5,8 8,1 36 19 54 29 S 29 0,1
10.12.2019 18:00:00 5,6 1,2 5,3 4,8 5,8 8,1 32 18 58 31 S 28 0,0
10.12.2019 17:00:00 5,3 1,5 4,9 4,8 5,8 8,1 32 18 47 25 S 25 0,0
10.12.2019 16:00:00 5,3 1,5 4,9 4,9 5,8 8,1 29 16 47 25 S 22 0,0
10.12.2019 15:00:00 5,7 1,7 5,4 5,0 5,8 8,1 25 14 43 23 S 28 0,0
10.12.2019 14:00:00 5,8 1,7 5,6 5,0 5,8 8,1 29 16 43 23 SSW 24 0,0
10.12.2019 13:00:00 6,1 1,8 6,3 4,7 5,8 8,1 32 18 43 23 SSW 24 0,0
10.12.2019 12:00:00 5,6 2,6 5,7 4,3 5,9 8,1 25 14 36 19 SSW 23 0,0
10.12.2019 11:00:00 4,7 2,7 4,6 4,0 5,9 8,1 22 12 29 16 SSW 20 0,0
10.12.2019 10:00:00 3,8 2,1 3,3 3,9 6,0 8,1 18 10 22 12 SSW 20 0,0
10.12.2019 09:00:00 3,2 1,7 2,3 4,0 6,0 8,1 14 8 18 10 SSW 18 0,0
10.12.2019 08:00:00 2,6 1,6 1,4 4,2 6,1 8,1 7 4 11 6 SSW 16 0,0
10.12.2019 07:00:00 2,4 1,6 1,5 4,3 6,1 8,1 7 4 14 8 SSW 15 0,0
10.12.2019 06:00:00 3,7 1,5 2,6 4,5 6,2 8,1 7 4 11 6 WSW 18 0,0
10.12.2019 05:00:00 4,3 1,6 3,5 4,6 6,2 8,1 7 4 14 8 WSW 21 0,0
10.12.2019 04:00:00 4,3 -0,2 2,7 4,7 6,3 8,1 11 6 22 12 WNW 29 0,0
10.12.2019 03:00:00 5,5 0,8 4,6 4,8 6,3 8,1 14 8 22 12 WNW 24 0,0
10.12.2019 02:00:00 5,1 0,7 4,1 4,8 6,4 8,1 11 6 25 14 WNW 19 0,0
10.12.2019 01:00:00 5,3 0,7 4,0 4,9 6,4 8,1 11 6 29 16 WNW 19 0,0
10.12.2019 00:00:00 5,2 0,1 4,1 4,9 6,5 8,1 18 10 29 16 WNW 21 0,0
09.12.2019 23:00:00 5,4 0,9 4,4 5,1 6,5 8,1 18 10 29 16 NW 17 0,0
09.12.2019 22:00:00 4,9 0,3 3,6 5,2 6,6 8,1 14 8 40 21 WNW 19 0,0
09.12.2019 21:00:00 4,5 0,5 3,4 5,5 6,6 8,1 18 10 40 21 NW 18 0,0
09.12.2019 20:00:00 5,4 -0,2 4,5 5,8 6,6 8,1 25 14 47 25 NW 24 0,0
09.12.2019 19:00:00 5,5 2,0 4,8 6,0 6,6 8,1 22 12 43 23 NW 17 0,0
09.12.2019 18:00:00 6,5 1,7 5,5 6,3 6,6 8,1 25 14 43 23 NNW 14 0,0
09.12.2019 17:00:00 7,1 2,4 6,3 6,6 6,6 8,1 25 14 50 27 NNW 14 0,0
09.12.2019 16:00:00 7,0 3,9 6,5 6,8 6,6 8,1 22 12 54 29 NNW 18 0,0
09.12.2019 15:00:00 7,0 4,9 6,7 6,9 6,6 8,1 22 12 40 21 NNW 42 0,4
09.12.2019 14:00:00 8,1 6,0 8,1 6,7 6,5 8,1 14 8 25 14 NW 19 0,0
09.12.2019 13:00:00 7,7 6,4 8,5 6,3 6,6 8,1 14 8 25 14 W 20 0,0
09.12.2019 12:00:00 7,4 6,2 7,5 6,0 6,6 8,1 11 6 25 14 W 23 0,0
09.12.2019 11:00:00 6,0 5,2 6,2 5,7 6,6 8,1 11 6 18 10 WSW 18 0,0
09.12.2019 10:00:00 5,4 4,5 5,0 5,8 6,6 8,1 7 4 18 10 SW 44 0,0
09.12.2019 09:00:00 5,1 4,5 4,8 5,8 6,7 8,1 11 6 22 12 SSW 36 0,0
09.12.2019 08:00:00 5,3 3,9 5,1 5,9 6,7 8,1 14 8 36 19 SW 25 0,0
09.12.2019 07:00:00 5,9 4,6 5,5 5,9 6,7 8,1 22 12 36 19 SSW 28 0,6
09.12.2019 06:00:00 6,0 4,8 5,7 5,9 6,8 8,1 22 12 36 19 SSW 8 0,9
09.12.2019 05:00:00 6,1 4,2 5,4 6,0 6,8 8,1 25 14 36 19 SSW 19 0,0
09.12.2019 04:00:00 6,3 4,4 5,8 6,1 6,8 8,1 25 14 43 23 SSW 14 0,0
09.12.2019 03:00:00 6,1 4,2 5,6 6,2 6,9 8,1 25 14 47 25 SW 16 0,0
09.12.2019 02:00:00 6,2 4,2 5,8 6,4 6,9 8,1 25 14 40 21 SSW 17 0,0
09.12.2019 01:00:00 6,8 4,4 6,3 6,5 6,9 8,1 25 14 40 21 SW 19 0,0
09.12.2019 00:00:00 7,2 4,2 6,4 6,6 6,9 8,1 25 14 40 21 SW 13 0,0
08.12.2019 23:00:00 7,3 4,2 6,5 6,8 6,9 8,1 18 10 40 21 WSW 19 0,0
08.12.2019 22:00:00 7,5 4,5 6,9 6,9 6,9 8,1 14 8 40 21 WSW 24 0,1
08.12.2019 21:00:00 7,6 5,4 7,1 7,0 7,0 8,1 22 12 43 23 SW 12 0,0
08.12.2019 20:00:00 7,9 5,3 7,4 7,1 7,0 8,1 14 8 47 25 WSW 12 0,5
08.12.2019 19:00:00 8,0 5,5 7,5 7,2 6,9 8,1 22 12 36 19 SW 12 0,0
08.12.2019 18:00:00 8,1 5,6 7,7 7,3 6,9 8,1 22 12 47 25 SW 13 0,0
08.12.2019 17:00:00 8,9 5,7 8,4 7,5 6,9 8,1 22 12 47 25 SW 11 0,0
08.12.2019 16:00:00 9,2 5,8 8,8 7,7 6,9 8,1 25 14 43 23 WSW 12 0,0
08.12.2019 15:00:00 9,1 6,1 8,8 7,8 6,8 8,1 25 14 47 25 WSW 19 0,1
08.12.2019 14:00:00 8,5 6,3 8,1 7,9 6,8 8,1 36 19 50 27 W 6 0,8
08.12.2019 13:00:00 10,3 7,8 10,4 7,8 6,7 8,1 25 14 50 27 WSW 17 0,0
08.12.2019 12:00:00 10,3 8,4 10,2 7,6 6,7 8,1 25 14 54 29 WSW 36 0,0
08.12.2019 11:00:00 9,3 8,7 9,2 7,5 6,7 8,1 29 16 54 29 SW 11 0,0
08.12.2019 10:00:00 9,1 8,4 8,9 7,3 6,7 8,1 36 19 58 31 SW 4,8 0,3
08.12.2019 09:00:00 9,0 8,2 8,7 7,2 6,6 8,1 36 19 61 33 SW 4,3 0,7
08.12.2019 08:00:00 8,6 7,5 8,3 7,1 6,6 8,1 40 21 61 33 SSW 11 1,3
08.12.2019 07:00:00 8,4 7,0 8,1 7,0 6,6 8,1 36 19 61 33 SW 8 0,9
08.12.2019 06:00:00 8,9 5,9 8,5 7,0 6,6 8,1 40 21 58 31 SW 48 0,0
08.12.2019 05:00:00 8,8 5,7 8,6 7,0 6,6 8,1 43 23 61 33 SSW 42 0,0
08.12.2019 04:00:00 9,0 6,0 8,7 7,0 6,6 8,1 40 21 58 31 SW 48 0,0
08.12.2019 03:00:00 9,1 6,4 8,9 7,0 6,6 8,1 36 19 50 27 SW 39 0,0
08.12.2019 02:00:00 9,0 6,7 8,6 6,9 6,6 8,1 32 18 50 27 SSW 27 0,0
08.12.2019 01:00:00 8,5 6,7 8,3 6,8 6,6 8,1 29 16 50 27 SSW 19 0,0
08.12.2019 00:00:00 8,1 5,9 7,9 6,8 6,5 8,1 25 14 40 21 SSW 29 0,0
07.12.2019 23:00:00 8,0 5,3 7,3 7,0 6,5 8,1 29 16 40 21 SSW 36 0,0
07.12.2019 22:00:00 8,2 6,1 8,0 7,1 6,5 8,1 22 12 36 19 SW 27 0,0
07.12.2019 21:00:00 8,4 6,5 8,0 7,1 6,5 8,1 22 12 32 18 SW 25 0,0
07.12.2019 20:00:00 8,4 6,9 8,2 7,2 6,5 8,2 22 12 29 16 SSW 18 0,0
07.12.2019 19:00:00 8,3 7,2 8,2 7,2 6,4 8,2 14 8 22 12 SW 18 0,0
07.12.2019 18:00:00 8,6 7,4 8,4 7,3 6,4 8,2 11 6 25 14 WSW 18 0,0
07.12.2019 17:00:00 8,6 7,2 8,4 7,4 6,3 8,2 11 6 25 14 WSW 19 0,0
07.12.2019 16:00:00 8,6 7,4 8,5 7,5 6,3 8,2 18 10 29 16 WSW 15 0,0
07.12.2019 15:00:00 8,9 7,5 8,8 7,5 6,2 8,2 18 10 29 16 W 16 0,0
07.12.2019 14:00:00 9,0 7,6 9,1 7,4 6,2 8,2 18 10 29 16 WSW 20 0,0
07.12.2019 13:00:00 9,1 7,6 9,2 7,2 6,1 8,2 18 10 32 18 WSW 19 0,0
07.12.2019 12:00:00 8,9 7,5 8,9 7,0 6,1 8,2 18 10 29 16 WSW 18 0,0
07.12.2019 11:00:00 8,4 7,3 8,3 6,8 6,1 8,2 18 10 25 14 WSW 16 0,0
07.12.2019 10:00:00 8,4 7,4 8,2 6,7 6,0 8,2 22 12 29 16 W 11 0,0
07.12.2019 09:00:00 8,3 7,2 8,0 6,7 6,0 8,2 18 10 29 16 W 8 0,1
07.12.2019 08:00:00 8,4 7,0 8,1 6,7 6,0 8,2 18 10 29 16 WSW 18 0,0
07.12.2019 07:00:00 8,5 7,1 8,2 6,8 5,9 8,2 18 10 32 18 WSW 17 0,0
07.12.2019 06:00:00 8,9 7,2 8,5 6,7 5,9 8,2 18 10 32 18 W 18 0,0
07.12.2019 05:00:00 8,8 7,5 8,4 6,7 5,8 8,3 22 12 29 16 W 11 0,0

tt = temperature
td = dewpoint
tt 5cm = temperature 5cm
tt -5cm = temperature -5cm
tt -20cm = temperature -20cm
tt -100cm = temperature -100cm
ff = wind speed
fx = gusts
dd = wind direction
vv = visibility
rr = precipitation

Next stations